sensor_id;sensor_type;location;lat;lon;timestamp;P1;durP1;ratioP1;P2;durP2;ratioP2
32186;SDS011;18686;53.084;8.872;2023-02-28T00:01:26;8.85;;;3.95;;
32186;SDS011;18686;53.084;8.872;2023-02-28T00:03:55;6.65;;;3.70;;
32186;SDS011;18686;53.084;8.872;2023-02-28T00:06:23;7.63;;;4.32;;
32186;SDS011;18686;53.084;8.872;2023-02-28T00:08:51;7.30;;;3.67;;
32186;SDS011;18686;53.084;8.872;2023-02-28T00:11:19;9.65;;;4.03;;
32186;SDS011;18686;53.084;8.872;2023-02-28T00:13:48;8.27;;;4.18;;
32186;SDS011;18686;53.084;8.872;2023-02-28T00:16:18;6.30;;;4.05;;
32186;SDS011;18686;53.084;8.872;2023-02-28T00:18:47;7.95;;;4.35;;
32186;SDS011;18686;53.084;8.872;2023-02-28T00:21:16;7.53;;;4.30;;
32186;SDS011;18686;53.084;8.872;2023-02-28T00:23:45;8.25;;;4.65;;
32186;SDS011;18686;53.084;8.872;2023-02-28T00:26:14;12.27;;;4.70;;
32186;SDS011;18686;53.084;8.872;2023-02-28T00:28:45;8.60;;;4.03;;
32186;SDS011;18686;53.084;8.872;2023-02-28T00:31:13;8.40;;;3.92;;
32186;SDS011;18686;53.084;8.872;2023-02-28T00:33:43;6.90;;;4.05;;
32186;SDS011;18686;53.084;8.872;2023-02-28T00:36:13;8.23;;;4.50;;
32186;SDS011;18686;53.084;8.872;2023-02-28T00:38:42;7.70;;;4.07;;
32186;SDS011;18686;53.084;8.872;2023-02-28T00:41:10;11.68;;;4.85;;
32186;SDS011;18686;53.084;8.872;2023-02-28T00:43:39;8.23;;;4.32;;
32186;SDS011;18686;53.084;8.872;2023-02-28T00:46:10;6.65;;;4.03;;
32186;SDS011;18686;53.084;8.872;2023-02-28T00:48:38;10.88;;;4.63;;
32186;SDS011;18686;53.084;8.872;2023-02-28T00:51:08;8.82;;;4.45;;
32186;SDS011;18686;53.084;8.872;2023-02-28T00:53:37;7.82;;;4.38;;
32186;SDS011;18686;53.084;8.872;2023-02-28T00:56:05;7.40;;;4.15;;
32186;SDS011;18686;53.084;8.872;2023-02-28T00:58:34;8.38;;;4.28;;
32186;SDS011;18686;53.084;8.872;2023-02-28T01:01:02;8.73;;;3.80;;
32186;SDS011;18686;53.084;8.872;2023-02-28T01:03:31;7.38;;;4.07;;
32186;SDS011;18686;53.084;8.872;2023-02-28T01:05:59;6.05;;;3.70;;
32186;SDS011;18686;53.084;8.872;2023-02-28T01:08:30;8.27;;;4.20;;
32186;SDS011;18686;53.084;8.872;2023-02-28T01:11:06;7.85;;;4.40;;
32186;SDS011;18686;53.084;8.872;2023-02-28T01:13:35;9.18;;;4.60;;
32186;SDS011;18686;53.084;8.872;2023-02-28T01:16:03;11.85;;;5.30;;
32186;SDS011;18686;53.084;8.872;2023-02-28T01:18:33;13.75;;;5.22;;
32186;SDS011;18686;53.084;8.872;2023-02-28T01:21:03;7.88;;;4.60;;
32186;SDS011;18686;53.084;8.872;2023-02-28T01:23:33;6.80;;;4.07;;
32186;SDS011;18686;53.084;8.872;2023-02-28T01:26:03;6.10;;;3.58;;
32186;SDS011;18686;53.084;8.872;2023-02-28T01:28:33;7.63;;;4.50;;
32186;SDS011;18686;53.084;8.872;2023-02-28T01:31:02;12.07;;;4.43;;
32186;SDS011;18686;53.084;8.872;2023-02-28T01:33:31;10.10;;;4.50;;
32186;SDS011;18686;53.084;8.872;2023-02-28T01:35:59;7.53;;;3.85;;
32186;SDS011;18686;53.084;8.872;2023-02-28T01:38:28;6.47;;;3.80;;
32186;SDS011;18686;53.084;8.872;2023-02-28T01:40:58;7.15;;;3.50;;
32186;SDS011;18686;53.084;8.872;2023-02-28T01:43:28;8.32;;;3.80;;
32186;SDS011;18686;53.084;8.872;2023-02-28T01:45:58;6.95;;;3.97;;
32186;SDS011;18686;53.084;8.872;2023-02-28T01:48:27;20.77;;;11.95;;
32186;SDS011;18686;53.084;8.872;2023-02-28T01:50:59;25.75;;;14.15;;
32186;SDS011;18686;53.084;8.872;2023-02-28T01:53:34;16.02;;;9.00;;
32186;SDS011;18686;53.084;8.872;2023-02-28T01:56:09;8.52;;;5.05;;
32186;SDS011;18686;53.084;8.872;2023-02-28T01:58:48;7.50;;;4.07;;
32186;SDS011;18686;53.084;8.872;2023-02-28T02:01:17;9.30;;;3.90;;
32186;SDS011;18686;53.084;8.872;2023-02-28T02:03:48;8.07;;;4.28;;
32186;SDS011;18686;53.084;8.872;2023-02-28T02:06:24;10.00;;;4.47;;
32186;SDS011;18686;53.084;8.872;2023-02-28T02:08:56;6.55;;;4.00;;
32186;SDS011;18686;53.084;8.872;2023-02-28T02:11:26;8.85;;;4.70;;
32186;SDS011;18686;53.084;8.872;2023-02-28T02:14:00;7.97;;;4.10;;
32186;SDS011;18686;53.084;8.872;2023-02-28T02:16:57;7.10;;;4.25;;
32186;SDS011;18686;53.084;8.872;2023-02-28T02:19:49;9.27;;;4.40;;
32186;SDS011;18686;53.084;8.872;2023-02-28T02:25:38;8.93;;;4.25;;
32186;SDS011;18686;53.084;8.872;2023-02-28T02:31:28;11.02;;;5.15;;
32186;SDS011;18686;53.084;8.872;2023-02-28T02:34:25;11.32;;;4.55;;
32186;SDS011;18686;53.084;8.872;2023-02-28T02:37:08;8.77;;;4.60;;
32186;SDS011;18686;53.084;8.872;2023-02-28T02:39:45;9.82;;;4.60;;
32186;SDS011;18686;53.084;8.872;2023-02-28T02:42:21;8.27;;;4.60;;
32186;SDS011;18686;53.084;8.872;2023-02-28T02:44:56;7.10;;;4.65;;
32186;SDS011;18686;53.084;8.872;2023-02-28T02:47:31;9.00;;;4.43;;
32186;SDS011;18686;53.084;8.872;2023-02-28T02:50:04;11.65;;;5.55;;
32186;SDS011;18686;53.084;8.872;2023-02-28T02:52:37;7.95;;;5.03;;
32186;SDS011;18686;53.084;8.872;2023-02-28T02:55:09;7.88;;;4.97;;
32186;SDS011;18686;53.084;8.872;2023-02-28T02:57:42;12.00;;;5.45;;
32186;SDS011;18686;53.084;8.872;2023-02-28T03:00:15;8.38;;;5.00;;
32186;SDS011;18686;53.084;8.872;2023-02-28T03:02:46;7.53;;;4.63;;
32186;SDS011;18686;53.084;8.872;2023-02-28T03:05:19;8.52;;;4.53;;
32186;SDS011;18686;53.084;8.872;2023-02-28T03:10:25;9.43;;;4.60;;
32186;SDS011;18686;53.084;8.872;2023-02-28T03:15:54;8.88;;;4.57;;
32186;SDS011;18686;53.084;8.872;2023-02-28T03:18:36;11.30;;;4.97;;
32186;SDS011;18686;53.084;8.872;2023-02-28T03:21:12;6.15;;;4.13;;
32186;SDS011;18686;53.084;8.872;2023-02-28T03:23:48;7.40;;;4.10;;
32186;SDS011;18686;53.084;8.872;2023-02-28T03:26:26;9.02;;;4.78;;
32186;SDS011;18686;53.084;8.872;2023-02-28T03:28:56;9.68;;;4.40;;
32186;SDS011;18686;53.084;8.872;2023-02-28T03:31:31;8.77;;;3.97;;
32186;SDS011;18686;53.084;8.872;2023-02-28T03:34:06;8.85;;;4.13;;
32186;SDS011;18686;53.084;8.872;2023-02-28T03:36:38;11.00;;;4.55;;
32186;SDS011;18686;53.084;8.872;2023-02-28T03:41:42;9.43;;;5.63;;
32186;SDS011;18686;53.084;8.872;2023-02-28T03:44:17;9.00;;;5.25;;
32186;SDS011;18686;53.084;8.872;2023-02-28T03:46:51;9.30;;;4.93;;
32186;SDS011;18686;53.084;8.872;2023-02-28T03:49:25;7.88;;;4.60;;
32186;SDS011;18686;53.084;8.872;2023-02-28T03:51:59;7.95;;;4.47;;
32186;SDS011;18686;53.084;8.872;2023-02-28T03:54:30;24.63;;;13.93;;
32186;SDS011;18686;53.084;8.872;2023-02-28T03:57:03;15.02;;;8.93;;
32186;SDS011;18686;53.084;8.872;2023-02-28T03:59:36;9.85;;;5.50;;
32186;SDS011;18686;53.084;8.872;2023-02-28T04:04:37;8.30;;;4.35;;
32186;SDS011;18686;53.084;8.872;2023-02-28T04:07:13;7.95;;;4.50;;
32186;SDS011;18686;53.084;8.872;2023-02-28T04:09:42;4.85;;;3.78;;
32186;SDS011;18686;53.084;8.872;2023-02-28T04:12:10;10.20;;;4.75;;
32186;SDS011;18686;53.084;8.872;2023-02-28T04:14:39;7.20;;;4.13;;
32186;SDS011;18686;53.084;8.872;2023-02-28T04:17:07;6.53;;;4.35;;
32186;SDS011;18686;53.084;8.872;2023-02-28T04:19:35;9.32;;;4.13;;
32186;SDS011;18686;53.084;8.872;2023-02-28T04:22:04;9.73;;;4.60;;
32186;SDS011;18686;53.084;8.872;2023-02-28T04:24:33;7.63;;;4.15;;
32186;SDS011;18686;53.084;8.872;2023-02-28T04:27:02;6.95;;;4.30;;
32186;SDS011;18686;53.084;8.872;2023-02-28T04:29:31;8.68;;;4.45;;
32186;SDS011;18686;53.084;8.872;2023-02-28T04:32:00;9.88;;;4.40;;
32186;SDS011;18686;53.084;8.872;2023-02-28T04:34:29;7.38;;;4.45;;
32186;SDS011;18686;53.084;8.872;2023-02-28T04:36:59;10.27;;;4.50;;
32186;SDS011;18686;53.084;8.872;2023-02-28T04:39:40;6.90;;;4.35;;
32186;SDS011;18686;53.084;8.872;2023-02-28T04:42:09;9.32;;;5.57;;
32186;SDS011;18686;53.084;8.872;2023-02-28T04:44:38;8.38;;;5.40;;
32186;SDS011;18686;53.084;8.872;2023-02-28T04:47:07;13.18;;;8.27;;
32186;SDS011;18686;53.084;8.872;2023-02-28T04:49:35;12.30;;;10.40;;
32186;SDS011;18686;53.084;8.872;2023-02-28T04:52:03;17.60;;;12.85;;
32186;SDS011;18686;53.084;8.872;2023-02-28T04:54:33;19.77;;;15.57;;
32186;SDS011;18686;53.084;8.872;2023-02-28T04:57:03;17.42;;;12.93;;
32186;SDS011;18686;53.084;8.872;2023-02-28T04:59:32;10.93;;;9.32;;
32186;SDS011;18686;53.084;8.872;2023-02-28T05:02:00;9.82;;;8.82;;
32186;SDS011;18686;53.084;8.872;2023-02-28T05:04:33;11.35;;;9.10;;
32186;SDS011;18686;53.084;8.872;2023-02-28T05:07:02;12.50;;;10.07;;
32186;SDS011;18686;53.084;8.872;2023-02-28T05:09:31;13.05;;;10.25;;
32186;SDS011;18686;53.084;8.872;2023-02-28T05:12:01;14.93;;;13.10;;
32186;SDS011;18686;53.084;8.872;2023-02-28T05:14:31;20.38;;;17.17;;
32186;SDS011;18686;53.084;8.872;2023-02-28T05:16:59;18.30;;;15.15;;
32186;SDS011;18686;53.084;8.872;2023-02-28T05:19:27;16.88;;;11.55;;
32186;SDS011;18686;53.084;8.872;2023-02-28T05:21:55;12.95;;;10.00;;
32186;SDS011;18686;53.084;8.872;2023-02-28T05:24:24;12.40;;;10.18;;
32186;SDS011;18686;53.084;8.872;2023-02-28T05:26:53;11.45;;;9.05;;
32186;SDS011;18686;53.084;8.872;2023-02-28T05:29:21;10.20;;;8.73;;
32186;SDS011;18686;53.084;8.872;2023-02-28T05:31:54;11.20;;;7.82;;
32186;SDS011;18686;53.084;8.872;2023-02-28T05:34:22;10.60;;;8.68;;
32186;SDS011;18686;53.084;8.872;2023-02-28T05:36:51;11.38;;;9.32;;
32186;SDS011;18686;53.084;8.872;2023-02-28T05:39:19;9.63;;;8.18;;
32186;SDS011;18686;53.084;8.872;2023-02-28T05:41:49;11.95;;;9.05;;
32186;SDS011;18686;53.084;8.872;2023-02-28T05:44:17;11.20;;;8.77;;
32186;SDS011;18686;53.084;8.872;2023-02-28T05:46:45;9.85;;;8.00;;
32186;SDS011;18686;53.084;8.872;2023-02-28T05:49:15;10.05;;;7.65;;
32186;SDS011;18686;53.084;8.872;2023-02-28T05:51:43;9.10;;;7.28;;
32186;SDS011;18686;53.084;8.872;2023-02-28T05:54:12;8.48;;;7.20;;
32186;SDS011;18686;53.084;8.872;2023-02-28T05:56:40;9.95;;;7.53;;
32186;SDS011;18686;53.084;8.872;2023-02-28T05:59:10;9.07;;;6.93;;
32186;SDS011;18686;53.084;8.872;2023-02-28T06:01:40;11.02;;;7.82;;
32186;SDS011;18686;53.084;8.872;2023-02-28T06:04:09;9.45;;;6.82;;
32186;SDS011;18686;53.084;8.872;2023-02-28T06:06:58;8.25;;;6.38;;
32186;SDS011;18686;53.084;8.872;2023-02-28T06:09:26;8.27;;;5.97;;
32186;SDS011;18686;53.084;8.872;2023-02-28T06:11:57;8.63;;;5.32;;
32186;SDS011;18686;53.084;8.872;2023-02-28T06:14:25;7.78;;;5.75;;
32186;SDS011;18686;53.084;8.872;2023-02-28T06:16:54;8.00;;;4.90;;
32186;SDS011;18686;53.084;8.872;2023-02-28T06:19:24;8.88;;;5.05;;
32186;SDS011;18686;53.084;8.872;2023-02-28T06:21:53;9.40;;;5.18;;
32186;SDS011;18686;53.084;8.872;2023-02-28T06:24:25;8.70;;;4.93;;
32186;SDS011;18686;53.084;8.872;2023-02-28T06:26:54;8.32;;;5.60;;
32186;SDS011;18686;53.084;8.872;2023-02-28T06:29:24;10.02;;;4.93;;
32186;SDS011;18686;53.084;8.872;2023-02-28T06:31:52;8.60;;;5.03;;
32186;SDS011;18686;53.084;8.872;2023-02-28T06:34:21;8.25;;;4.50;;
32186;SDS011;18686;53.084;8.872;2023-02-28T06:36:50;7.38;;;5.03;;
32186;SDS011;18686;53.084;8.872;2023-02-28T06:39:19;6.10;;;4.10;;
32186;SDS011;18686;53.084;8.872;2023-02-28T06:41:49;8.30;;;5.53;;
32186;SDS011;18686;53.084;8.872;2023-02-28T06:46:49;5.82;;;4.30;;
32186;SDS011;18686;53.084;8.872;2023-02-28T06:49:18;7.43;;;4.22;;
32186;SDS011;18686;53.084;8.872;2023-02-28T06:51:46;6.47;;;4.70;;
32186;SDS011;18686;53.084;8.872;2023-02-28T06:54:15;7.80;;;4.28;;
32186;SDS011;18686;53.084;8.872;2023-02-28T06:56:43;13.25;;;5.45;;
32186;SDS011;18686;53.084;8.872;2023-02-28T06:59:12;7.25;;;4.85;;
32186;SDS011;18686;53.084;8.872;2023-02-28T07:01:41;6.47;;;4.60;;
32186;SDS011;18686;53.084;8.872;2023-02-28T07:04:09;9.27;;;4.90;;
32186;SDS011;18686;53.084;8.872;2023-02-28T07:06:39;12.60;;;5.57;;
32186;SDS011;18686;53.084;8.872;2023-02-28T07:09:08;8.15;;;4.93;;
32186;SDS011;18686;53.084;8.872;2023-02-28T07:11:37;15.43;;;5.72;;
32186;SDS011;18686;53.084;8.872;2023-02-28T07:14:05;11.60;;;5.00;;
32186;SDS011;18686;53.084;8.872;2023-02-28T07:16:35;9.88;;;4.80;;
32186;SDS011;18686;53.084;8.872;2023-02-28T07:19:03;17.88;;;6.25;;
32186;SDS011;18686;53.084;8.872;2023-02-28T07:21:32;7.43;;;4.63;;
32186;SDS011;18686;53.084;8.872;2023-02-28T07:24:00;12.35;;;4.60;;
32186;SDS011;18686;53.084;8.872;2023-02-28T07:26:28;10.70;;;5.13;;
32186;SDS011;18686;53.084;8.872;2023-02-28T07:28:57;11.32;;;4.97;;
32186;SDS011;18686;53.084;8.872;2023-02-28T07:31:25;10.75;;;5.20;;
32186;SDS011;18686;53.084;8.872;2023-02-28T07:33:55;9.20;;;5.45;;
32186;SDS011;18686;53.084;8.872;2023-02-28T07:36:24;8.93;;;5.10;;
32186;SDS011;18686;53.084;8.872;2023-02-28T07:38:52;12.68;;;5.30;;
32186;SDS011;18686;53.084;8.872;2023-02-28T07:41:21;8.07;;;5.10;;
32186;SDS011;18686;53.084;8.872;2023-02-28T07:43:54;9.82;;;4.85;;
32186;SDS011;18686;53.084;8.872;2023-02-28T07:46:23;8.98;;;4.82;;
32186;SDS011;18686;53.084;8.872;2023-02-28T07:48:57;10.00;;;5.18;;
32186;SDS011;18686;53.084;8.872;2023-02-28T07:51:26;15.25;;;4.70;;
32186;SDS011;18686;53.084;8.872;2023-02-28T07:53:55;11.40;;;4.78;;
32186;SDS011;18686;53.084;8.872;2023-02-28T07:56:23;10.00;;;4.38;;
32186;SDS011;18686;53.084;8.872;2023-02-28T07:58:51;12.80;;;4.60;;
32186;SDS011;18686;53.084;8.872;2023-02-28T08:01:20;10.45;;;4.68;;
32186;SDS011;18686;53.084;8.872;2023-02-28T08:03:48;9.68;;;3.30;;
32186;SDS011;18686;53.084;8.872;2023-02-28T08:06:19;6.30;;;3.20;;
32186;SDS011;18686;53.084;8.872;2023-02-28T08:08:48;6.22;;;3.40;;
32186;SDS011;18686;53.084;8.872;2023-02-28T08:11:17;6.82;;;2.80;;
32186;SDS011;18686;53.084;8.872;2023-02-28T08:13:46;8.88;;;3.30;;
32186;SDS011;18686;53.084;8.872;2023-02-28T08:16:14;4.38;;;2.58;;
32186;SDS011;18686;53.084;8.872;2023-02-28T08:18:48;5.72;;;3.08;;
32186;SDS011;18686;53.084;8.872;2023-02-28T08:21:17;3.75;;;2.42;;
32186;SDS011;18686;53.084;8.872;2023-02-28T08:23:47;5.18;;;2.60;;
32186;SDS011;18686;53.084;8.872;2023-02-28T08:26:16;4.65;;;2.53;;
32186;SDS011;18686;53.084;8.872;2023-02-28T08:28:45;4.05;;;2.40;;
32186;SDS011;18686;53.084;8.872;2023-02-28T08:31:14;4.60;;;2.80;;
32186;SDS011;18686;53.084;8.872;2023-02-28T08:33:44;5.45;;;2.50;;
32186;SDS011;18686;53.084;8.872;2023-02-28T08:36:13;4.28;;;2.30;;
32186;SDS011;18686;53.084;8.872;2023-02-28T08:38:43;4.88;;;2.47;;
32186;SDS011;18686;53.084;8.872;2023-02-28T08:41:12;6.60;;;2.08;;
32186;SDS011;18686;53.084;8.872;2023-02-28T08:43:40;4.05;;;2.10;;
32186;SDS011;18686;53.084;8.872;2023-02-28T08:46:10;4.47;;;2.08;;
32186;SDS011;18686;53.084;8.872;2023-02-28T08:48:40;3.20;;;2.05;;
32186;SDS011;18686;53.084;8.872;2023-02-28T08:51:09;3.08;;;2.00;;
32186;SDS011;18686;53.084;8.872;2023-02-28T08:53:39;5.30;;;2.53;;
32186;SDS011;18686;53.084;8.872;2023-02-28T08:56:10;5.15;;;2.30;;
32186;SDS011;18686;53.084;8.872;2023-02-28T08:58:39;4.93;;;2.50;;
32186;SDS011;18686;53.084;8.872;2023-02-28T09:01:09;3.20;;;1.88;;
32186;SDS011;18686;53.084;8.872;2023-02-28T09:03:38;2.65;;;1.98;;
32186;SDS011;18686;53.084;8.872;2023-02-28T09:06:08;6.72;;;1.92;;
32186;SDS011;18686;53.084;8.872;2023-02-28T09:08:38;2.80;;;1.77;;
32186;SDS011;18686;53.084;8.872;2023-02-28T09:11:06;2.80;;;1.70;;
32186;SDS011;18686;53.084;8.872;2023-02-28T09:13:36;3.42;;;1.70;;
32186;SDS011;18686;53.084;8.872;2023-02-28T09:16:06;3.35;;;1.58;;
32186;SDS011;18686;53.084;8.872;2023-02-28T09:18:37;3.30;;;1.92;;
32186;SDS011;18686;53.084;8.872;2023-02-28T09:21:06;3.78;;;1.75;;
32186;SDS011;18686;53.084;8.872;2023-02-28T09:23:36;3.30;;;1.90;;
32186;SDS011;18686;53.084;8.872;2023-02-28T09:26:05;2.42;;;1.70;;
32186;SDS011;18686;53.084;8.872;2023-02-28T09:28:33;2.67;;;1.83;;
32186;SDS011;18686;53.084;8.872;2023-02-28T09:31:03;2.60;;;1.30;;
32186;SDS011;18686;53.084;8.872;2023-02-28T09:33:32;1.77;;;1.35;;
32186;SDS011;18686;53.084;8.872;2023-02-28T09:36:00;2.72;;;1.40;;
32186;SDS011;18686;53.084;8.872;2023-02-28T09:38:30;2.15;;;1.10;;
32186;SDS011;18686;53.084;8.872;2023-02-28T09:40:59;1.27;;;1.00;;
32186;SDS011;18686;53.084;8.872;2023-02-28T09:43:31;0.82;;;0.80;;
32186;SDS011;18686;53.084;8.872;2023-02-28T09:46:06;2.03;;;1.00;;
32186;SDS011;18686;53.084;8.872;2023-02-28T09:48:42;2.40;;;1.08;;
32186;SDS011;18686;53.084;8.872;2023-02-28T09:51:15;1.23;;;0.90;;
32186;SDS011;18686;53.084;8.872;2023-02-28T09:54:05;3.17;;;1.35;;
32186;SDS011;18686;53.084;8.872;2023-02-28T09:56:38;3.78;;;1.00;;
32186;SDS011;18686;53.084;8.872;2023-02-28T09:59:10;1.13;;;0.65;;
32186;SDS011;18686;53.084;8.872;2023-02-28T10:01:48;1.90;;;0.90;;
32186;SDS011;18686;53.084;8.872;2023-02-28T10:04:33;1.00;;;0.70;;
32186;SDS011;18686;53.084;8.872;2023-02-28T10:07:14;1.15;;;0.82;;
32186;SDS011;18686;53.084;8.872;2023-02-28T10:09:53;1.98;;;1.10;;
32186;SDS011;18686;53.084;8.872;2023-02-28T10:12:26;2.05;;;1.17;;
32186;SDS011;18686;53.084;8.872;2023-02-28T10:14:57;1.23;;;0.70;;
32186;SDS011;18686;53.084;8.872;2023-02-28T10:17:32;1.27;;;0.80;;
32186;SDS011;18686;53.084;8.872;2023-02-28T10:20:26;1.98;;;0.95;;
32186;SDS011;18686;53.084;8.872;2023-02-28T10:22:58;1.20;;;0.70;;
32186;SDS011;18686;53.084;8.872;2023-02-28T10:25:35;1.10;;;0.63;;
32186;SDS011;18686;53.084;8.872;2023-02-28T10:28:08;1.65;;;1.08;;
32186;SDS011;18686;53.084;8.872;2023-02-28T10:30:40;0.93;;;0.70;;
32186;SDS011;18686;53.084;8.872;2023-02-28T10:33:16;1.33;;;0.80;;
32186;SDS011;18686;53.084;8.872;2023-02-28T10:35:48;1.00;;;0.77;;
32186;SDS011;18686;53.084;8.872;2023-02-28T10:38:17;1.58;;;0.80;;
32186;SDS011;18686;53.084;8.872;2023-02-28T10:40:48;1.40;;;0.80;;
32186;SDS011;18686;53.084;8.872;2023-02-28T10:43:21;0.57;;;0.55;;
32186;SDS011;18686;53.084;8.872;2023-02-28T10:45:56;1.30;;;0.77;;
32186;SDS011;18686;53.084;8.872;2023-02-28T10:48:30;1.40;;;0.88;;
32186;SDS011;18686;53.084;8.872;2023-02-28T10:51:01;1.73;;;1.00;;
32186;SDS011;18686;53.084;8.872;2023-02-28T10:53:32;2.50;;;0.90;;
32186;SDS011;18686;53.084;8.872;2023-02-28T10:56:25;1.10;;;0.80;;
32186;SDS011;18686;53.084;8.872;2023-02-28T10:58:54;0.90;;;0.70;;
32186;SDS011;18686;53.084;8.872;2023-02-28T11:01:25;1.40;;;0.68;;
32186;SDS011;18686;53.084;8.872;2023-02-28T11:04:13;2.45;;;1.20;;
32186;SDS011;18686;53.084;8.872;2023-02-28T11:06:44;1.27;;;0.70;;
32186;SDS011;18686;53.084;8.872;2023-02-28T11:09:18;1.50;;;0.85;;
32186;SDS011;18686;53.084;8.872;2023-02-28T11:11:51;2.00;;;1.10;;
32186;SDS011;18686;53.084;8.872;2023-02-28T11:14:20;1.10;;;0.60;;
32186;SDS011;18686;53.084;8.872;2023-02-28T11:16:51;1.33;;;1.08;;
32186;SDS011;18686;53.084;8.872;2023-02-28T11:19:23;1.42;;;0.70;;
32186;SDS011;18686;53.084;8.872;2023-02-28T11:21:59;1.10;;;0.90;;
32186;SDS011;18686;53.084;8.872;2023-02-28T11:24:29;0.60;;;0.60;;
32186;SDS011;18686;53.084;8.872;2023-02-28T11:27:01;1.17;;;0.83;;
32186;SDS011;18686;53.084;8.872;2023-02-28T11:29:33;2.00;;;1.00;;
32186;SDS011;18686;53.084;8.872;2023-02-28T11:32:04;1.40;;;0.93;;
32186;SDS011;18686;53.084;8.872;2023-02-28T11:34:41;2.58;;;1.25;;
32186;SDS011;18686;53.084;8.872;2023-02-28T11:37:11;1.27;;;0.80;;
32186;SDS011;18686;53.084;8.872;2023-02-28T11:39:42;1.27;;;0.85;;
32186;SDS011;18686;53.084;8.872;2023-02-28T11:42:18;2.33;;;0.82;;
32186;SDS011;18686;53.084;8.872;2023-02-28T11:45:07;0.98;;;0.80;;
32186;SDS011;18686;53.084;8.872;2023-02-28T11:47:45;0.98;;;0.70;;
32186;SDS011;18686;53.084;8.872;2023-02-28T11:50:22;0.95;;;0.70;;
32186;SDS011;18686;53.084;8.872;2023-02-28T11:53:05;1.13;;;0.57;;
32186;SDS011;18686;53.084;8.872;2023-02-28T11:55:45;1.75;;;0.73;;
32186;SDS011;18686;53.084;8.872;2023-02-28T11:58:19;1.60;;;0.90;;
32186;SDS011;18686;53.084;8.872;2023-02-28T12:01:08;4.30;;;3.67;;
32186;SDS011;18686;53.084;8.872;2023-02-28T12:03:51;1.20;;;0.73;;
32186;SDS011;18686;53.084;8.872;2023-02-28T12:06:30;2.05;;;0.90;;
32186;SDS011;18686;53.084;8.872;2023-02-28T12:09:09;1.77;;;0.70;;
32186;SDS011;18686;53.084;8.872;2023-02-28T12:11:48;1.00;;;0.70;;
32186;SDS011;18686;53.084;8.872;2023-02-28T12:14:31;2.15;;;0.70;;
32186;SDS011;18686;53.084;8.872;2023-02-28T12:17:21;2.00;;;0.85;;
32186;SDS011;18686;53.084;8.872;2023-02-28T12:20:08;1.08;;;0.70;;
32186;SDS011;18686;53.084;8.872;2023-02-28T12:22:49;1.08;;;0.70;;
32186;SDS011;18686;53.084;8.872;2023-02-28T12:25:38;0.65;;;0.47;;
32186;SDS011;18686;53.084;8.872;2023-02-28T12:28:17;2.20;;;0.70;;
32186;SDS011;18686;53.084;8.872;2023-02-28T12:30:52;1.00;;;0.60;;
32186;SDS011;18686;53.084;8.872;2023-02-28T12:33:24;1.13;;;0.50;;
32186;SDS011;18686;53.084;8.872;2023-02-28T12:35:57;1.27;;;0.50;;
32186;SDS011;18686;53.084;8.872;2023-02-28T12:38:28;1.30;;;0.70;;
32186;SDS011;18686;53.084;8.872;2023-02-28T12:41:03;2.08;;;0.90;;
32186;SDS011;18686;53.084;8.872;2023-02-28T12:43:36;0.88;;;0.65;;
32186;SDS011;18686;53.084;8.872;2023-02-28T12:46:09;1.20;;;0.90;;
32186;SDS011;18686;53.084;8.872;2023-02-28T12:48:41;1.33;;;0.70;;
32186;SDS011;18686;53.084;8.872;2023-02-28T12:51:12;1.02;;;0.52;;
32186;SDS011;18686;53.084;8.872;2023-02-28T12:53:49;2.10;;;0.85;;
32186;SDS011;18686;53.084;8.872;2023-02-28T12:56:24;1.15;;;0.70;;
32186;SDS011;18686;53.084;8.872;2023-02-28T12:59:04;1.33;;;0.80;;
32186;SDS011;18686;53.084;8.872;2023-02-28T13:01:47;1.65;;;0.70;;
32186;SDS011;18686;53.084;8.872;2023-02-28T13:04:27;1.17;;;0.63;;
32186;SDS011;18686;53.084;8.872;2023-02-28T13:07:12;0.95;;;0.75;;
32186;SDS011;18686;53.084;8.872;2023-02-28T13:09:57;1.05;;;0.60;;
32186;SDS011;18686;53.084;8.872;2023-02-28T13:12:28;0.60;;;0.53;;
32186;SDS011;18686;53.084;8.872;2023-02-28T13:15:02;0.77;;;0.70;;
32186;SDS011;18686;53.084;8.872;2023-02-28T13:17:38;0.52;;;0.43;;
32186;SDS011;18686;53.084;8.872;2023-02-28T13:20:14;2.17;;;0.60;;
32186;SDS011;18686;53.084;8.872;2023-02-28T13:22:45;1.23;;;0.63;;
32186;SDS011;18686;53.084;8.872;2023-02-28T13:31:32;0.85;;;0.70;;
32186;SDS011;18686;53.084;8.872;2023-02-28T13:34:27;1.75;;;1.30;;
32186;SDS011;18686;53.084;8.872;2023-02-28T13:37:04;1.88;;;1.10;;
32186;SDS011;18686;53.084;8.872;2023-02-28T13:40:07;2.33;;;1.10;;
32186;SDS011;18686;53.084;8.872;2023-02-28T13:42:55;1.85;;;0.75;;
32186;SDS011;18686;53.084;8.872;2023-02-28T13:45:27;2.47;;;1.10;;
32186;SDS011;18686;53.084;8.872;2023-02-28T13:47:59;1.40;;;0.95;;
32186;SDS011;18686;53.084;8.872;2023-02-28T13:50:31;1.35;;;0.77;;
32186;SDS011;18686;53.084;8.872;2023-02-28T13:53:17;1.02;;;0.75;;
32186;SDS011;18686;53.084;8.872;2023-02-28T13:56:21;1.50;;;0.90;;
32186;SDS011;18686;53.084;8.872;2023-02-28T13:59:04;2.58;;;1.02;;
32186;SDS011;18686;53.084;8.872;2023-02-28T14:01:47;1.50;;;1.08;;
32186;SDS011;18686;53.084;8.872;2023-02-28T14:04:45;0.95;;;0.70;;
32186;SDS011;18686;53.084;8.872;2023-02-28T14:07:22;1.20;;;0.80;;
32186;SDS011;18686;53.084;8.872;2023-02-28T14:09:57;2.00;;;1.05;;
32186;SDS011;18686;53.084;8.872;2023-02-28T14:15:39;0.98;;;0.70;;
32186;SDS011;18686;53.084;8.872;2023-02-28T14:18:20;2.80;;;0.90;;
32186;SDS011;18686;53.084;8.872;2023-02-28T14:20:59;1.48;;;0.75;;
32186;SDS011;18686;53.084;8.872;2023-02-28T14:23:50;0.90;;;0.70;;
32186;SDS011;18686;53.084;8.872;2023-02-28T14:26:38;1.58;;;1.00;;
32186;SDS011;18686;53.084;8.872;2023-02-28T14:29:24;1.45;;;0.82;;
32186;SDS011;18686;53.084;8.872;2023-02-28T14:32:05;1.20;;;0.77;;
32186;SDS011;18686;53.084;8.872;2023-02-28T14:34:42;1.52;;;0.80;;
32186;SDS011;18686;53.084;8.872;2023-02-28T14:37:19;1.77;;;1.00;;
32186;SDS011;18686;53.084;8.872;2023-02-28T14:39:52;1.30;;;1.10;;
32186;SDS011;18686;53.084;8.872;2023-02-28T14:42:29;4.20;;;1.13;;
32186;SDS011;18686;53.084;8.872;2023-02-28T14:44:59;3.60;;;1.83;;
32186;SDS011;18686;53.084;8.872;2023-02-28T14:47:29;1.75;;;1.10;;
32186;SDS011;18686;53.084;8.872;2023-02-28T14:49:59;2.75;;;1.17;;
32186;SDS011;18686;53.084;8.872;2023-02-28T14:52:31;2.53;;;1.30;;
32186;SDS011;18686;53.084;8.872;2023-02-28T14:55:03;1.73;;;0.80;;
32186;SDS011;18686;53.084;8.872;2023-02-28T14:57:34;2.20;;;1.15;;
32186;SDS011;18686;53.084;8.872;2023-02-28T15:00:12;1.88;;;1.17;;
32186;SDS011;18686;53.084;8.872;2023-02-28T15:02:43;2.97;;;0.95;;
32186;SDS011;18686;53.084;8.872;2023-02-28T15:08:05;2.00;;;1.20;;
32186;SDS011;18686;53.084;8.872;2023-02-28T15:10:38;1.75;;;1.10;;
32186;SDS011;18686;53.084;8.872;2023-02-28T15:13:11;3.28;;;1.08;;
32186;SDS011;18686;53.084;8.872;2023-02-28T15:15:43;1.08;;;0.98;;
32186;SDS011;18686;53.084;8.872;2023-02-28T15:18:30;2.67;;;1.08;;
32186;SDS011;18686;53.084;8.872;2023-02-28T15:21:12;2.88;;;1.30;;
32186;SDS011;18686;53.084;8.872;2023-02-28T15:23:46;1.10;;;0.90;;
32186;SDS011;18686;53.084;8.872;2023-02-28T15:26:19;1.63;;;0.98;;
32186;SDS011;18686;53.084;8.872;2023-02-28T15:28:49;4.05;;;1.00;;
32186;SDS011;18686;53.084;8.872;2023-02-28T15:31:21;2.40;;;1.25;;
32186;SDS011;18686;53.084;8.872;2023-02-28T15:34:02;1.73;;;1.05;;
32186;SDS011;18686;53.084;8.872;2023-02-28T15:36:32;2.63;;;1.20;;
32186;SDS011;18686;53.084;8.872;2023-02-28T15:39:18;2.15;;;1.02;;
32186;SDS011;18686;53.084;8.872;2023-02-28T15:44:17;1.85;;;0.98;;
32186;SDS011;18686;53.084;8.872;2023-02-28T15:46:57;3.17;;;1.40;;
32186;SDS011;18686;53.084;8.872;2023-02-28T15:49:29;2.78;;;1.15;;
32186;SDS011;18686;53.084;8.872;2023-02-28T15:52:11;2.15;;;1.30;;
32186;SDS011;18686;53.084;8.872;2023-02-28T15:54:44;10.13;;;5.63;;